Time;durP1;ratioP1;P1;durP2;ratioP2;P2;SDS_P1;SDS_P2;PMS_P1;PMS_P2;Temp;Humidity;BMP_temperature;BMP_pressure;BME280_temperature;BME280_humidity;BME280_pressure;Samples;Min_cycle;Max_cycle;Signal;HPM_P1;HPM_P2
2023/04/16 00:00:31;;;;;;;11.43;6.63;;;10.90;83.80;;;;;;5082952;28;20484;-64
2023/04/16 00:03:06;;;;;;;9.83;6.30;;;10.90;83.70;;;;;;5083585;28;20454;-63
2023/04/16 00:05:44;;;;;;;11.87;7.33;;;10.90;83.80;;;;;;5088605;28;20498;-64
2023/04/16 00:08:19;;;;;;;9.77;6.67;;;10.90;83.90;;;;;;5087711;28;20478;-63
2023/04/16 00:10:53;;;;;;;10.90;7.27;;;10.90;83.90;;;;;;5085117;28;20751;-63
2023/04/16 00:13:27;;;;;;;11.07;6.50;;;10.90;83.90;;;;;;5085782;28;20786;-63
2023/04/16 00:16:00;;;;;;;8.90;6.27;;;10.90;83.90;;;;;;5082680;28;20555;-64
2023/04/16 00:18:40;;;;;;;10.13;7.03;;;10.90;83.90;;;;;;5066947;28;20468;-63
2023/04/16 00:21:18;;;;;;;10.87;7.10;;;10.90;83.90;;;;;;5086520;28;20598;-64
2023/04/16 00:23:57;;;;;;;10.93;6.80;;;10.90;83.90;;;;;;5084751;28;20597;-64
2023/04/16 00:26:43;;;;;;;10.13;7.10;;;10.90;83.90;;;;;;5084703;28;20543;-64
2023/04/16 00:29:27;;;;;;;10.17;6.57;;;10.90;83.90;;;;;;5083969;28;20477;-63
2023/04/16 00:32:00;;;;;;;11.03;7.03;;;10.90;83.90;;;;;;5083982;28;20480;-64
2023/04/16 00:34:41;;;;;;;8.63;6.23;;;10.90;83.90;;;;;;5069921;28;20534;-64
2023/04/16 00:37:15;;;;;;;12.37;7.30;;;10.90;84.00;;;;;;5083971;28;20494;-63
2023/04/16 00:39:54;;;;;;;9.83;6.90;;;10.90;84.00;;;;;;5081440;28;20506;-64
2023/04/16 00:42:28;;;;;;;9.60;6.03;;;10.90;84.00;;;;;;5081951;28;20462;-63
2023/04/16 00:45:02;;;;;;;10.77;6.40;;;10.90;84.00;;;;;;5081055;28;21275;-63
2023/04/16 00:47:33;;;;;;;10.47;6.83;;;10.90;84.00;;;;;;5061968;28;20503;-64
2023/04/16 00:50:04;;;;;;;11.60;6.60;;;10.90;84.00;;;;;;5081327;28;20576;-63
2023/04/16 00:52:42;;;;;;;9.93;6.67;;;10.90;84.00;;;;;;5067137;28;20592;-64
2023/04/16 00:55:22;;;;;;;9.30;6.13;;;10.90;84.00;;;;;;5083878;28;20511;-64
2023/04/16 00:57:55;;;;;;;13.67;6.70;;;10.90;84.00;;;;;;5081466;28;20763;-65
2023/04/16 01:00:35;;;;;;;9.47;6.13;;;10.90;84.00;;;;;;5080520;28;20574;-64
2023/04/16 01:03:11;;;;;;;11.50;6.90;;;11.00;83.90;;;;;;5079836;28;20464;-65
2023/04/16 01:05:48;;;;;;;10.73;6.73;;;10.90;83.90;;;;;;5082900;28;20929;-65
2023/04/16 01:08:23;;;;;;;10.27;6.43;;;10.90;83.90;;;;;;5084957;28;20521;-64
2023/04/16 01:11:03;;;;;;;9.80;6.10;;;10.90;83.90;;;;;;5081053;28;20790;-64
2023/04/16 01:13:38;;;;;;;10.23;7.10;;;10.90;83.90;;;;;;5082875;28;20462;-64
2023/04/16 01:16:14;;;;;;;10.97;6.77;;;10.90;84.00;;;;;;5083699;28;20475;-64
2023/04/16 01:18:52;;;;;;;8.97;5.50;;;10.90;84.00;;;;;;5080035;28;20469;-64
2023/04/16 01:21:42;;;;;;;9.00;5.30;;;10.90;84.10;;;;;;5060808;28;21024;-64
2023/04/16 01:24:18;;;;;;;8.73;5.13;;;10.90;84.10;;;;;;5079745;28;20463;-64
2023/04/16 01:26:50;;;;;;;11.33;6.30;;;10.90;84.00;;;;;;5083704;28;20461;-65
2023/04/16 01:29:21;;;;;;;10.10;6.10;;;10.90;84.00;;;;;;5079403;28;20450;-64
2023/04/16 01:32:03;;;;;;;10.40;5.73;;;10.90;84.10;;;;;;5063334;28;20505;-64
2023/04/16 01:34:42;;;;;;;8.03;5.87;;;10.90;84.10;;;;;;5086504;28;20459;-64
2023/04/16 01:37:21;;;;;;;10.30;5.60;;;10.90;84.10;;;;;;5080818;28;20485;-64
2023/04/16 01:39:53;;;;;;;9.57;6.10;;;10.90;84.10;;;;;;5080145;28;20797;-64
2023/04/16 01:42:24;;;;;;;10.77;6.47;;;10.90;84.00;;;;;;5058536;28;20530;-64
2023/04/16 01:44:55;;;;;;;8.83;5.80;;;10.90;84.10;;;;;;5077807;28;20556;-65
2023/04/16 01:47:28;;;;;;;9.40;6.10;;;10.80;84.10;;;;;;5082364;28;20472;-64
2023/04/16 01:49:59;;;;;;;9.73;6.43;;;10.80;84.10;;;;;;5081874;28;20473;-64
2023/04/16 01:52:36;;;;;;;10.53;6.30;;;10.80;84.20;;;;;;5082277;28;20458;-64
2023/04/16 01:55:11;;;;;;;10.37;7.03;;;10.80;84.20;;;;;;5075994;28;20581;-64
2023/04/16 01:57:47;;;;;;;14.00;7.10;;;10.80;84.20;;;;;;5067409;28;20485;-64
2023/04/16 02:00:21;;;;;;;9.40;6.30;;;10.80;84.20;;;;;;5082511;28;20457;-65
2023/04/16 02:02:56;;;;;;;9.83;6.50;;;10.80;84.20;;;;;;5084069;28;20934;-64
2023/04/16 02:05:29;;;;;;;11.87;7.20;;;10.80;84.20;;;;;;5084946;28;20552;-64
2023/04/16 02:08:05;;;;;;;13.07;6.70;;;10.80;84.20;;;;;;5080262;28;20465;-64
2023/04/16 02:10:46;;;;;;;11.80;6.93;;;10.80;84.30;;;;;;5080566;28;20456;-64
2023/04/16 02:13:22;;;;;;;11.83;7.70;;;10.80;84.30;;;;;;5062953;28;20459;-64
2023/04/16 02:16:03;;;;;;;12.83;8.07;;;10.90;84.20;;;;;;5065995;28;20552;-64
2023/04/16 02:19:01;;;;;;;14.10;7.57;;;10.90;84.20;;;;;;5067928;28;20473;-64
2023/04/16 02:22:04;;;;;;;13.07;8.43;;;10.80;84.30;;;;;;5080635;28;20472;-63
2023/04/16 02:24:44;;;;;;;13.80;8.57;;;10.90;84.30;;;;;;5070769;28;20465;-64
2023/04/16 02:27:34;;;;;;;15.27;9.90;;;10.90;84.30;;;;;;5080964;28;20517;-64
2023/04/16 02:30:28;;;;;;;20.30;11.33;;;10.90;84.30;;;;;;5074525;28;20484;-65
2023/04/16 02:33:00;;;;;;;18.17;9.93;;;10.90;84.30;;;;;;5081135;28;20807;-65
2023/04/16 02:35:30;;;;;;;17.83;10.60;;;10.90;84.30;;;;;;5069411;28;20461;-65
2023/04/16 02:38:21;;;;;;;19.20;10.67;;;10.90;84.30;;;;;;5080076;28;20577;-64
2023/04/16 02:41:07;;;;;;;19.37;10.37;;;10.90;84.30;;;;;;5063606;28;20479;-64
2023/04/16 02:43:46;;;;;;;20.10;11.83;;;10.90;84.30;;;;;;5079702;28;20474;-64
2023/04/16 02:46:48;;;;;;;19.20;11.47;;;10.80;84.30;;;;;;5082841;28;20461;-64
2023/04/16 02:49:22;;;;;;;21.70;12.40;;;10.90;84.40;;;;;;5064515;28;20468;-64
2023/04/16 02:52:13;;;;;;;22.23;12.97;;;10.80;84.40;;;;;;5082446;28;20454;-64
2023/04/16 02:54:58;;;;;;;23.10;14.60;;;10.80;84.30;;;;;;5082571;28;20473;-64
2023/04/16 02:57:31;;;;;;;23.67;13.80;;;10.80;84.40;;;;;;5077147;28;20475;-64
2023/04/16 03:00:22;;;;;;;24.67;13.30;;;10.80;84.40;;;;;;5081546;28;20730;-64
2023/04/16 03:02:54;;;;;;;18.77;11.60;;;10.80;84.40;;;;;;5066556;28;20461;-64
2023/04/16 03:05:33;;;;;;;19.97;12.13;;;10.80;84.50;;;;;;5082675;28;20518;-64
2023/04/16 03:08:18;;;;;;;18.17;11.03;;;10.80;84.50;;;;;;5083217;28;20795;-63
2023/04/16 03:10:51;;;;;;;17.10;10.47;;;10.80;84.50;;;;;;5082364;28;20448;-64
2023/04/16 03:13:31;;;;;;;17.23;10.93;;;10.80;84.50;;;;;;5077474;28;20549;-64
2023/04/16 03:16:08;;;;;;;18.17;10.13;;;10.80;84.50;;;;;;5079195;28;21078;-64
2023/04/16 03:18:42;;;;;;;17.00;10.33;;;10.80;84.50;;;;;;5082687;28;20480;-64
2023/04/16 03:21:16;;;;;;;15.70;9.97;;;10.80;84.50;;;;;;5085848;28;21061;-64
2023/04/16 03:23:47;;;;;;;15.00;8.97;;;10.80;84.60;;;;;;5078730;28;20515;-64
2023/04/16 03:26:25;;;;;;;15.20;9.10;;;10.80;84.60;;;;;;5079497;28;20465;-64
2023/04/16 03:29:00;;;;;;;16.27;9.50;;;10.80;84.60;;;;;;5065226;28;20501;-64
2023/04/16 03:31:45;;;;;;;16.00;9.63;;;10.80;84.60;;;;;;5081457;28;20983;-65
2023/04/16 03:34:17;;;;;;;16.17;10.27;;;10.80;84.50;;;;;;5081699;28;20463;-64
2023/04/16 03:36:52;;;;;;;15.10;9.77;;;10.80;84.60;;;;;;5069374;28;20980;-65
2023/04/16 03:39:25;;;;;;;19.07;10.43;;;10.80;84.60;;;;;;5081863;28;20458;-64
2023/04/16 03:41:57;;;;;;;15.30;9.40;;;10.80;84.50;;;;;;5081197;28;20459;-64
2023/04/16 03:44:33;;;;;;;17.27;10.80;;;10.80;84.60;;;;;;5080585;28;20553;-65
2023/04/16 03:50:04;;;;;;;16.60;10.53;;;10.80;84.70;;;;;;5082945;28;20471;-64
2023/04/16 03:52:37;;;;;;;20.43;9.80;;;10.80;84.70;;;;;;5082595;28;20555;-64
2023/04/16 03:55:13;;;;;;;16.50;10.10;;;10.80;84.70;;;;;;5062993;28;20461;-65
2023/04/16 03:57:52;;;;;;;18.77;12.07;;;10.80;84.60;;;;;;5083164;28;20479;-68
2023/04/16 04:00:39;;;;;;;18.53;11.30;;;10.80;84.70;;;;;;5058877;28;20480;-65
2023/04/16 04:03:15;;;;;;;19.60;10.70;;;10.80;84.70;;;;;;5053123;28;20471;-64
2023/04/16 04:05:53;;;;;;;18.40;11.53;;;10.80;84.70;;;;;;5081824;28;20488;-65
2023/04/16 04:08:37;;;;;;;19.57;12.03;;;10.80;84.70;;;;;;5084166;28;20449;-64
2023/04/16 04:11:10;;;;;;;19.43;11.63;;;10.80;84.70;;;;;;5064915;28;20468;-64
2023/04/16 04:13:49;;;;;;;23.70;12.57;;;10.80;84.70;;;;;;5079052;28;20460;-64
2023/04/16 04:16:24;;;;;;;22.40;12.50;;;10.80;84.70;;;;;;5065341;28;20454;-64
2023/04/16 04:18:59;;;;;;;18.03;11.50;;;10.80;84.70;;;;;;5062557;28;20477;-64
2023/04/16 04:21:31;;;;;;;18.97;11.47;;;10.80;84.70;;;;;;5064868;28;21499;-64
2023/04/16 04:24:06;;;;;;;22.07;11.93;;;10.80;84.70;;;;;;5085926;28;20802;-64
2023/04/16 04:26:46;;;;;;;20.10;12.37;;;10.80;84.70;;;;;;5066929;28;20477;-64
2023/04/16 04:29:21;;;;;;;23.47;12.60;;;10.80;84.70;;;;;;5080816;28;20555;-64
2023/04/16 04:32:01;;;;;;;22.23;12.77;;;10.80;84.70;;;;;;5065450;28;20568;-64
2023/04/16 04:34:32;;;;;;;24.33;13.90;;;10.80;84.70;;;;;;5062403;28;20460;-63
2023/04/16 04:37:03;;;;;;;24.50;14.33;;;10.80;84.70;;;;;;5064777;28;20468;-64
2023/04/16 04:39:33;;;;;;;23.67;13.80;;;10.80;84.70;;;;;;5064207;28;20459;-64
2023/04/16 04:42:19;;;;;;;23.87;13.40;;;10.80;84.70;;;;;;5080324;28;20549;-64
2023/04/16 04:44:59;;;;;;;21.77;13.70;;;10.80;84.70;;;;;;5080888;28;20473;-64
2023/04/16 04:47:46;;;;;;;24.07;14.10;;;10.70;84.70;;;;;;5063745;28;20448;-64
2023/04/16 04:50:21;;;;;;;21.90;14.17;;;10.70;84.80;;;;;;5081670;28;20532;-64
2023/04/16 04:52:53;;;;;;;25.57;13.80;;;10.70;84.80;;;;;;5064754;28;20444;-64
2023/04/16 04:55:32;;;;;;;23.97;14.50;;;10.70;84.80;;;;;;5060916;28;20480;-65
2023/04/16 04:58:11;;;;;;;24.63;14.57;;;10.70;84.70;;;;;;5063012;28;20480;-66
2023/04/16 05:00:46;;;;;;;24.80;14.17;;;10.70;84.80;;;;;;5077701;28;20484;-64
2023/04/16 05:03:34;;;;;;;26.07;15.23;;;10.70;84.80;;;;;;5084860;28;20499;-64
2023/04/16 05:06:10;;;;;;;23.53;14.67;;;10.70;84.90;;;;;;5082741;28;20460;-64
2023/04/16 05:08:41;;;;;;;20.60;13.13;;;10.70;84.80;;;;;;5085381;28;20466;-64
2023/04/16 05:11:21;;;;;;;24.57;14.57;;;10.70;84.90;;;;;;5073320;28;21004;-64
2023/04/16 05:13:51;;;;;;;27.37;14.53;;;10.80;84.90;;;;;;5070391;28;20561;-64
2023/04/16 05:16:31;;;;;;;21.37;13.37;;;10.80;84.90;;;;;;5081877;28;20468;-64
2023/04/16 05:19:19;;;;;;;26.27;16.10;;;10.80;84.80;;;;;;5086626;28;20484;-64
2023/04/16 05:21:50;;;;;;;25.67;13.93;;;10.80;84.80;;;;;;5083153;28;20473;-64
2023/04/16 05:24:19;;;;;;;25.97;16.13;;;10.80;84.80;;;;;;5079263;28;20976;-64
2023/04/16 05:27:00;;;;;;;31.33;16.53;;;10.80;84.80;;;;;;5080225;28;20555;-65
2023/04/16 05:29:32;;;;;;;27.80;16.33;;;10.80;84.90;;;;;;5083813;28;20457;-64
2023/04/16 05:32:07;;;;;;;29.27;15.77;;;10.70;84.80;;;;;;5079260;28;20840;-64
2023/04/16 05:34:47;;;;;;;25.47;16.40;;;10.70;84.80;;;;;;5079827;28;20453;-64
2023/04/16 05:37:21;;;;;;;29.70;17.50;;;10.70;84.90;;;;;;5084571;28;20466;-64
2023/04/16 05:39:54;;;;;;;34.07;17.73;;;10.70;84.90;;;;;;5082094;28;20613;-64
2023/04/16 05:42:30;;;;;;;27.70;16.97;;;10.70;84.90;;;;;;5082037;28;20462;-64
2023/04/16 05:45:04;;;;;;;26.47;16.40;;;10.70;84.90;;;;;;5078876;28;20529;-64
2023/04/16 05:47:42;;;;;;;26.33;16.60;;;10.80;84.90;;;;;;5081950;28;20446;-64
2023/04/16 05:50:18;;;;;;;32.10;19.20;;;10.80;84.90;;;;;;5082814;28;20955;-65
2023/04/16 05:52:51;;;;;;;32.00;19.10;;;10.80;84.90;;;;;;5082603;28;20447;-64
2023/04/16 05:55:26;;;;;;;31.20;18.60;;;10.80;84.90;;;;;;5080604;28;20501;-64
2023/04/16 05:57:58;;;;;;;33.63;20.50;;;10.80;84.90;;;;;;5078006;28;20492;-65
2023/04/16 06:00:29;;;;;;;29.93;17.73;;;10.80;84.90;;;;;;5082926;28;20888;-64
2023/04/16 06:03:02;;;;;;;30.13;19.73;;;10.80;84.90;;;;;;5077877;28;20472;-64
2023/04/16 06:05:35;;;;;;;30.30;18.83;;;10.80;84.80;;;;;;5080196;28;20953;-66
2023/04/16 06:08:09;;;;;;;31.67;19.10;;;10.80;84.90;;;;;;5082368;28;21553;-64
2023/04/16 06:13:35;;;;;;;35.30;19.57;;;10.80;85.00;;;;;;5077479;28;20464;-64
2023/04/16 06:16:11;;;;;;;34.30;19.70;;;10.80;85.00;;;;;;5078139;28;20457;-64
2023/04/16 06:18:46;;;;;;;34.50;19.87;;;10.80;85.00;;;;;;5081067;28;20491;-64
2023/04/16 06:21:17;;;;;;;31.90;18.17;;;10.80;85.00;;;;;;5079955;28;20564;-64
2023/04/16 06:23:53;;;;;;;30.77;19.47;;;10.80;85.00;;;;;;5065600;28;20776;-63
2023/04/16 06:26:27;;;;;;;28.93;19.40;;;10.80;85.00;;;;;;5064902;28;21121;-64
2023/04/16 06:29:01;;;;;;;33.70;19.23;;;10.80;84.90;;;;;;5083153;28;20469;-64
2023/04/16 06:31:39;;;;;;;32.40;17.50;;;10.80;84.90;;;;;;5081617;28;20558;-64
2023/04/16 06:34:15;;;;;;;32.60;18.50;;;10.80;84.90;;;;;;5081342;28;20489;-64
2023/04/16 06:36:49;;;;;;;26.47;17.90;;;10.80;84.90;;;;;;5080024;28;20460;-64
2023/04/16 06:39:22;;;;;;;28.93;18.03;;;10.80;84.90;;;;;;5084050;28;20481;-65
2023/04/16 06:41:56;;;;;;;29.30;19.10;;;10.80;84.90;;;;;;5082440;28;20539;-64
2023/04/16 06:44:28;;;;;;;31.03;19.60;;;10.80;84.90;;;;;;5082569;28;20548;-64
2023/04/16 06:46:59;;;;;;;31.37;19.33;;;10.80;84.90;;;;;;5083698;28;20471;-64
2023/04/16 06:49:41;;;;;;;29.83;18.30;;;10.80;85.00;;;;;;5080828;28;20540;-64
2023/04/16 06:52:21;;;;;;;29.63;17.50;;;10.80;84.90;;;;;;5081116;28;20470;-64
2023/04/16 06:54:56;;;;;;;28.40;17.03;;;10.80;85.00;;;;;;5083855;28;20472;-64
2023/04/16 06:57:31;;;;;;;28.10;16.90;;;10.80;85.10;;;;;;5087279;28;20457;-64
2023/04/16 07:00:07;;;;;;;28.00;17.57;;;10.80;85.00;;;;;;5079901;28;20555;-64
2023/04/16 07:02:38;;;;;;;30.73;16.47;;;10.90;85.10;;;;;;5079737;28;20479;-64
2023/04/16 07:05:17;;;;;;;26.70;17.03;;;10.90;85.10;;;;;;5077854;28;20463;-64
2023/04/16 07:07:49;;;;;;;27.47;16.10;;;10.90;85.00;;;;;;5081272;28;20914;-64
2023/04/16 07:10:24;;;;;;;28.00;15.70;;;10.90;85.00;;;;;;5082574;28;20465;-64
2023/04/16 07:13:03;;;;;;;23.40;15.47;;;11.00;85.00;;;;;;5077360;28;21100;-65
2023/04/16 07:15:44;;;;;;;26.10;14.93;;;11.00;85.00;;;;;;5081480;28;20464;-64
2023/04/16 07:18:15;;;;;;;27.30;16.10;;;11.00;85.00;;;;;;5063184;28;20994;-64
2023/04/16 07:20:48;;;;;;;24.63;15.10;;;11.00;85.00;;;;;;5081367;28;20575;-64
2023/04/16 07:23:22;;;;;;;24.83;14.50;;;11.00;85.00;;;;;;5079211;28;20493;-64
2023/04/16 07:26:02;;;;;;;22.10;14.10;;;11.00;85.00;;;;;;5078854;28;20453;-64
2023/04/16 07:28:36;;;;;;;28.80;15.40;;;11.00;85.00;;;;;;5079278;28;20977;-64
2023/04/16 07:31:12;;;;;;;23.27;14.23;;;11.00;85.00;;;;;;5061206;28;20488;-65
2023/04/16 07:33:43;;;;;;;20.00;13.40;;;11.00;85.00;;;;;;5071728;28;20461;-65
2023/04/16 07:39:09;;;;;;;22.60;14.00;;;11.10;85.00;;;;;;5077303;28;20482;-65
2023/04/16 07:41:43;;;;;;;18.77;12.97;;;11.10;85.00;;;;;;5083172;28;20937;-64
2023/04/16 07:46:56;;;;;;;19.30;12.80;;;11.00;84.90;;;;;;5076443;28;20994;-64
2023/04/16 07:49:30;;;;;;;19.90;12.53;;;11.00;85.00;;;;;;5080377;28;20913;-64
2023/04/16 07:52:08;;;;;;;22.23;13.37;;;11.10;85.10;;;;;;5076805;28;20504;-63
2023/04/16 07:55:00;;;;;;;21.60;13.37;;;11.10;85.10;;;;;;5078120;28;20477;-64
2023/04/16 07:57:40;;;;;;;26.90;11.00;;;11.10;85.00;;;;;;5078673;28;20479;-64
2023/04/16 08:00:20;;;;;;;19.70;12.30;;;11.10;85.00;;;;;;5081489;28;20480;-64
2023/04/16 08:05:45;;;;;;;18.27;11.20;;;11.10;84.90;;;;;;5082463;28;20936;-63
2023/04/16 08:08:20;;;;;;;14.50;10.53;;;11.10;85.00;;;;;;5085581;28;21004;-64
2023/04/16 08:10:55;;;;;;;20.50;12.57;;;11.10;85.00;;;;;;5083686;28;20816;-64
2023/04/16 08:13:27;;;;;;;16.50;10.90;;;11.10;84.90;;;;;;5081238;28;20783;-64
2023/04/16 08:16:05;;;;;;;18.00;11.17;;;11.10;84.90;;;;;;5079757;28;20467;-64
2023/04/16 08:18:48;;;;;;;20.07;11.37;;;11.10;85.00;;;;;;5085541;28;20454;-64
2023/04/16 08:21:25;;;;;;;16.60;11.00;;;11.10;85.00;;;;;;5081040;28;20508;-63
2023/04/16 08:23:58;;;;;;;19.00;10.77;;;11.10;85.00;;;;;;5080872;28;20465;-64
2023/04/16 08:26:30;;;;;;;16.50;11.53;;;11.10;85.00;;;;;;5084416;28;20546;-64
2023/04/16 08:29:02;;;;;;;13.97;9.13;;;11.10;85.00;;;;;;5083824;28;20450;-64
2023/04/16 08:34:33;;;;;;;22.67;10.30;;;11.10;85.00;;;;;;5083404;28;20496;-65
2023/04/16 08:37:08;;;;;;;18.20;10.60;;;11.10;85.10;;;;;;5083575;28;20462;-64
2023/04/16 08:39:40;;;;;;;15.97;9.97;;;11.10;85.10;;;;;;5077762;28;20489;-64
2023/04/16 08:42:31;;;;;;;14.90;9.47;;;11.10;85.10;;;;;;5079500;28;20464;-64
2023/04/16 08:45:11;;;;;;;15.00;9.73;;;11.20;85.00;;;;;;5078561;28;21026;-64
2023/04/16 08:47:48;;;;;;;16.83;9.30;;;11.20;85.00;;;;;;5083076;28;20473;-64
2023/04/16 08:50:24;;;;;;;16.20;10.03;;;11.10;85.00;;;;;;5080862;28;20452;-65
2023/04/16 08:53:05;;;;;;;15.70;10.13;;;11.20;85.10;;;;;;5077496;28;20867;-64
2023/04/16 08:55:43;;;;;;;13.07;9.03;;;11.20;85.10;;;;;;5082694;28;21174;-64
2023/04/16 08:58:33;;;;;;;15.03;10.20;;;11.20;85.10;;;;;;5067112;28;20608;-64
2023/04/16 09:01:09;;;;;;;16.47;9.97;;;11.20;85.20;;;;;;5081694;28;20495;-64
2023/04/16 09:03:51;;;;;;;13.00;8.70;;;11.20;85.00;;;;;;5080430;28;20954;-64
2023/04/16 09:06:27;;;;;;;12.63;8.13;;;11.20;85.00;;;;;;5081528;28;20917;-64
2023/04/16 09:09:03;;;;;;;11.87;8.10;;;11.30;85.00;;;;;;5081785;28;20536;-64
2023/04/16 09:11:38;;;;;;;12.77;8.97;;;11.30;85.00;;;;;;5082050;28;21016;-64
2023/04/16 09:14:16;;;;;;;13.50;8.53;;;11.30;85.00;;;;;;5081031;28;20468;-65
2023/04/16 09:16:54;;;;;;;14.37;9.03;;;11.30;84.90;;;;;;5080013;28;21164;-64
2023/04/16 09:19:30;;;;;;;14.10;8.90;;;11.30;84.90;;;;;;5086323;28;21107;-64
2023/04/16 09:22:02;;;;;;;15.27;9.30;;;11.30;84.90;;;;;;5082336;28;20458;-66
2023/04/16 09:24:37;;;;;;;11.33;7.73;;;11.30;84.90;;;;;;5085279;28;20843;-64
2023/04/16 09:27:10;;;;;;;13.33;8.50;;;11.30;84.80;;;;;;5085478;28;20485;-66
2023/04/16 09:29:54;;;;;;;14.43;8.63;;;11.30;84.80;;;;;;5080331;28;20452;-64
2023/04/16 09:32:32;;;;;;;12.63;8.20;;;11.30;84.90;;;;;;5063692;28;21031;-67
2023/04/16 09:35:05;;;;;;;14.30;9.07;;;11.30;85.00;;;;;;5064269;28;20563;-65
2023/04/16 09:37:37;;;;;;;12.00;8.03;;;11.30;85.20;;;;;;5067862;28;20473;-65
2023/04/16 09:40:16;;;;;;;10.70;7.60;;;11.30;85.20;;;;;;5083752;28;21039;-64
2023/04/16 09:42:55;;;;;;;11.60;7.70;;;11.40;85.00;;;;;;5081834;28;20545;-64
2023/04/16 09:45:32;;;;;;;13.90;7.13;;;11.30;85.20;;;;;;5063653;28;20506;-64
2023/04/16 09:48:08;;;;;;;11.70;7.60;;;11.30;85.20;;;;;;5071513;28;20484;-64
2023/04/16 09:50:48;;;;;;;9.63;6.50;;;11.40;85.20;;;;;;5081967;28;20584;-64
2023/04/16 09:53:25;;;;;;;12.00;6.70;;;11.30;85.20;;;;;;5079374;28;20462;-64
2023/04/16 09:56:06;;;;;;;12.20;6.70;;;11.30;85.20;;;;;;5083919;28;20473;-64
2023/04/16 09:58:40;;;;;;;9.57;6.60;;;11.30;85.20;;;;;;5080014;28;20518;-64
2023/04/16 10:01:17;;;;;;;11.57;7.77;;;11.30;85.20;;;;;;5085867;28;20511;-64
2023/04/16 10:03:58;;;;;;;15.83;8.17;;;11.30;85.40;;;;;;5082363;28;20454;-64
2023/04/16 10:06:33;;;;;;;12.77;7.83;;;11.40;85.20;;;;;;5082287;28;20472;-64
2023/04/16 10:09:11;;;;;;;12.13;7.60;;;11.40;85.40;;;;;;5082142;28;20463;-65
2023/04/16 10:11:46;;;;;;;10.30;6.77;;;11.40;85.40;;;;;;5083386;28;20477;-64
2023/04/16 10:14:19;;;;;;;11.10;7.60;;;11.40;85.20;;;;;;5082224;28;20462;-64
2023/04/16 10:16:58;;;;;;;9.27;6.70;;;11.40;85.40;;;;;;5067165;28;20464;-64
2023/04/16 10:19:31;;;;;;;13.13;7.30;;;11.40;85.50;;;;;;5081384;28;20475;-64
2023/04/16 10:22:05;;;;;;;12.37;7.97;;;11.40;85.50;;;;;;5085210;28;20996;-64
2023/04/16 10:24:39;;;;;;;12.07;7.60;;;11.50;85.50;;;;;;5082771;28;20465;-64
2023/04/16 10:27:11;;;;;;;13.40;7.57;;;11.50;85.40;;;;;;5080478;28;20460;-64
2023/04/16 10:29:43;;;;;;;10.93;7.23;;;11.50;85.50;;;;;;5069624;28;20478;-64
2023/04/16 10:32:30;;;;;;;12.77;7.70;;;11.50;85.30;;;;;;5076971;28;20482;-64
2023/04/16 10:35:03;;;;;;;12.53;8.10;;;11.60;85.30;;;;;;5081363;28;20462;-64
2023/04/16 10:37:42;;;;;;;13.90;7.87;;;11.50;85.30;;;;;;5080226;28;20462;-64
2023/04/16 10:40:29;;;;;;;11.47;7.90;;;11.50;85.30;;;;;;5083938;28;21017;-64
2023/04/16 10:43:03;;;;;;;12.00;8.53;;;11.50;85.30;;;;;;5064653;28;20946;-64
2023/04/16 10:45:41;;;;;;;14.90;8.30;;;11.50;85.30;;;;;;5085724;28;20465;-64
2023/04/16 10:48:17;;;;;;;12.87;8.03;;;11.50;85.40;;;;;;5085409;28;20460;-64
2023/04/16 10:50:59;;;;;;;11.77;8.23;;;11.50;85.40;;;;;;5083490;28;20837;-64
2023/04/16 10:53:37;;;;;;;14.37;8.40;;;11.50;85.50;;;;;;5063035;28;20499;-65
2023/04/16 10:56:14;;;;;;;15.83;7.93;;;11.50;85.50;;;;;;5081598;28;20496;-64
2023/04/16 10:58:59;;;;;;;12.00;8.27;;;11.60;85.50;;;;;;5083276;28;20940;-64
2023/04/16 11:01:39;;;;;;;11.73;8.57;;;11.60;85.50;;;;;;5060759;28;20482;-64
2023/04/16 11:04:41;;;;;;;13.10;8.70;;;11.60;85.60;;;;;;5080269;28;20470;-64
2023/04/16 11:07:27;;;;;;;12.90;8.77;;;11.60;85.60;;;;;;5082013;28;21282;-64
2023/04/16 11:09:59;;;;;;;12.83;9.17;;;11.70;85.60;;;;;;5082628;28;20893;-64
2023/04/16 11:12:43;;;;;;;13.20;10.00;;;11.70;85.60;;;;;;5082964;28;20485;-66
2023/04/16 11:15:29;;;;;;;15.90;10.00;;;11.70;85.60;;;;;;5083776;28;20452;-66
2023/04/16 11:18:02;;;;;;;12.07;9.10;;;11.70;85.60;;;;;;5078908;28;20489;-68
2023/04/16 11:20:43;;;;;;;13.53;9.93;;;11.70;85.60;;;;;;5080723;28;20527;-65
2023/04/16 11:23:20;;;;;;;15.37;10.20;;;11.70;85.70;;;;;;5046859;28;20523;-65
2023/04/16 11:25:56;;;;;;;16.63;9.80;;;11.70;85.70;;;;;;5080621;28;21013;-65
2023/04/16 11:28:38;;;;;;;16.73;11.30;;;11.70;85.70;;;;;;5075571;28;20450;-66
2023/04/16 11:31:15;;;;;;;16.27;11.83;;;11.70;85.90;;;;;;5076885;28;20478;-65
2023/04/16 11:33:52;;;;;;;16.13;12.20;;;11.60;86.00;;;;;;5080589;28;20490;-65
2023/04/16 11:36:28;;;;;;;15.57;12.00;;;11.70;85.90;;;;;;5081097;28;20575;-64
2023/04/16 11:39:08;;;;;;;18.70;13.83;;;11.80;85.90;;;;;;5082068;28;20471;-65
2023/04/16 11:41:43;;;;;;;16.70;11.83;;;11.80;85.70;;;;;;5075246;28;21011;-64
2023/04/16 11:44:21;;;;;;;16.40;11.13;;;11.80;85.80;;;;;;5080648;28;20453;-65
2023/04/16 11:46:55;;;;;;;14.23;10.30;;;11.80;85.80;;;;;;5084177;28;20459;-64
2023/04/16 11:49:35;;;;;;;16.73;12.07;;;11.80;85.70;;;;;;5082804;28;20545;-64
2023/04/16 11:52:08;;;;;;;15.20;10.80;;;11.80;85.60;;;;;;5080107;28;20959;-64
2023/04/16 11:54:52;;;;;;;17.17;13.03;;;11.70;85.70;;;;;;5081600;28;20456;-64
2023/04/16 11:57:33;;;;;;;14.30;11.00;;;11.70;85.80;;;;;;5079032;28;20463;-66
2023/04/16 12:00:05;;;;;;;15.70;11.20;;;11.80;85.80;;;;;;5081122;28;20471;-64
2023/04/16 12:02:47;;;;;;;15.27;10.13;;;11.80;85.70;;;;;;5085934;28;20508;-64
2023/04/16 12:05:33;;;;;;;16.40;11.63;;;11.80;85.80;;;;;;5074632;28;20476;-64
2023/04/16 12:08:10;;;;;;;15.83;12.10;;;11.80;85.90;;;;;;5078570;28;20618;-64
2023/04/16 12:10:58;;;;;;;14.83;10.67;;;11.90;85.90;;;;;;5077379;28;21259;-64
2023/04/16 12:13:38;;;;;;;14.83;12.60;;;12.00;85.70;;;;;;5081028;28;20527;-65
2023/04/16 12:16:26;;;;;;;15.07;10.43;;;12.00;85.60;;;;;;5086342;28;20465;-66
2023/04/16 12:19:06;;;;;;;14.57;11.73;;;12.10;85.40;;;;;;5067139;28;20465;-65
2023/04/16 12:21:41;;;;;;;15.80;11.63;;;12.10;85.50;;;;;;5079261;28;20843;-65
2023/04/16 12:24:19;;;;;;;14.20;10.47;;;12.10;85.60;;;;;;5066722;28;20457;-63
2023/04/16 12:27:01;;;;;;;14.00;10.70;;;12.10;85.50;;;;;;5079058;28;20473;-66
2023/04/16 12:29:37;;;;;;;16.70;10.30;;;12.10;85.50;;;;;;5078566;28;20457;-65
2023/04/16 12:32:26;;;;;;;14.50;11.43;;;12.10;85.60;;;;;;5083255;28;20562;-63
2023/04/16 12:35:00;;;;;;;13.47;9.90;;;12.10;85.60;;;;;;5078650;28;20498;-63
2023/04/16 12:37:35;;;;;;;14.37;10.27;;;12.10;85.50;;;;;;5077327;28;20480;-65
2023/04/16 12:40:19;;;;;;;13.13;10.47;;;12.10;85.50;;;;;;5077649;28;20553;-64
2023/04/16 12:42:52;;;;;;;16.67;12.80;;;12.10;85.40;;;;;;5080772;28;20569;-65
2023/04/16 12:45:31;;;;;;;14.80;11.03;;;12.10;85.50;;;;;;5083647;28;20470;-65
2023/04/16 12:48:10;;;;;;;14.40;11.00;;;12.20;85.40;;;;;;5086021;28;20466;-65
2023/04/16 12:50:42;;;;;;;14.60;10.77;;;12.20;85.30;;;;;;5081365;28;20474;-65
2023/04/16 12:53:17;;;;;;;14.83;10.57;;;12.20;85.30;;;;;;5082651;28;20955;-66
2023/04/16 12:55:51;;;;;;;18.50;11.37;;;12.20;85.10;;;;;;5086161;28;21146;-65
2023/04/16 12:58:22;;;;;;;15.00;11.43;;;12.30;85.10;;;;;;5082117;28;21319;-63
2023/04/16 13:00:52;;;;;;;14.60;10.93;;;12.30;85.10;;;;;;5084827;28;20488;-63
2023/04/16 13:03:29;;;;;;;14.17;10.97;;;12.30;85.10;;;;;;5082008;28;20485;-64
2023/04/16 13:06:07;;;;;;;15.43;11.67;;;12.30;85.20;;;;;;5067894;28;20445;-62
2023/04/16 13:08:38;;;;;;;18.07;11.13;;;12.40;85.20;;;;;;5082080;28;20477;-64
2023/04/16 13:11:26;;;;;;;14.07;11.07;;;12.40;85.00;;;;;;5083495;28;20463;-64
2023/04/16 13:13:58;;;;;;;13.53;11.20;;;12.40;85.10;;;;;;5085827;28;20459;-64
2023/04/16 13:16:37;;;;;;;15.17;10.23;;;12.30;85.20;;;;;;5074117;28;20486;-64
2023/04/16 13:19:11;;;;;;;16.53;11.70;;;12.30;85.20;;;;;;5084999;28;20453;-64
2023/04/16 13:21:44;;;;;;;14.33;10.57;;;12.40;84.80;;;;;;5081256;28;20783;-64
2023/04/16 13:24:27;;;;;;;14.97;11.37;;;12.40;84.70;;;;;;5087502;28;20451;-65
2023/04/16 13:27:07;;;;;;;14.27;10.77;;;12.40;84.50;;;;;;5078695;28;20453;-64
2023/04/16 13:29:41;;;;;;;14.17;10.03;;;12.40;84.40;;;;;;5083949;28;20468;-63
2023/04/16 13:32:14;;;;;;;14.00;10.77;;;12.30;84.50;;;;;;5081163;28;20472;-63
2023/04/16 13:34:46;;;;;;;14.67;10.90;;;12.30;84.50;;;;;;5082250;28;21371;-64
2023/04/16 13:37:23;;;;;;;14.33;11.00;;;12.40;84.50;;;;;;5082154;28;20499;-64